Time;durP1;ratioP1;P1;durP2;ratioP2;P2;SDS_P1;SDS_P2;PMS_P1;PMS_P2;Temp;Humidity;BMP_temperature;BMP_pressure;BME280_temperature;BME280_humidity;BME280_pressure;Samples;Min_cycle;Max_cycle;Signal;HPM_P1;HPM_P2
2023/03/29 00:02:03;;;;;;;4.55;2.00;;;;;;;;;;6219553;23;20012;-92
2023/03/29 00:04:29;;;;;;;4.90;2.30;;;;;;;;;;6218713;23;20001;-92
2023/03/29 00:06:55;;;;;;;6.43;2.40;;;;;;;;;;6218486;23;20004;-92
2023/03/29 00:09:22;;;;;;;4.53;2.05;;;;;;;;;;6217685;23;19994;-92
2023/03/29 00:11:48;;;;;;;6.38;2.63;;;;;;;;;;6218082;23;20011;-93
2023/03/29 00:14:14;;;;;;;5.13;2.08;;;;;;;;;;6218512;23;20150;-93
2023/03/29 00:16:45;;;;;;;5.15;2.30;;;;;;;;;;6217500;23;20027;-93
2023/03/29 00:19:11;;;;;;;6.43;2.63;;;;;;;;;;6218182;23;20092;-91
2023/03/29 00:21:37;;;;;;;5.95;2.67;;;;;;;;;;6218089;23;20334;-91
2023/03/29 00:24:03;;;;;;;5.35;2.53;;;;;;;;;;6218270;23;20006;-93
2023/03/29 00:26:29;;;;;;;6.68;3.30;;;;;;;;;;6218599;23;20441;-93
2023/03/29 00:28:55;;;;;;;4.88;2.55;;;;;;;;;;6218857;23;20000;-93
2023/03/29 00:31:25;;;;;;;5.50;2.80;;;;;;;;;;6218390;23;20024;-93
2023/03/29 00:33:54;;;;;;;4.95;2.50;;;;;;;;;;6217869;23;21100;-93
2023/03/29 00:36:23;;;;;;;5.80;3.15;;;;;;;;;;6216455;23;20012;-93
2023/03/29 00:38:52;;;;;;;5.15;2.63;;;;;;;;;;6217507;23;20030;-93
2023/03/29 00:41:18;;;;;;;6.30;3.08;;;;;;;;;;6218328;23;20035;-93
2023/03/29 00:43:55;;;;;;;8.02;3.40;;;;;;;;;;6218793;23;20027;-92
2023/03/29 00:46:22;;;;;;;8.00;3.25;;;;;;;;;;6218310;23;20426;-93
2023/03/29 00:48:52;;;;;;;7.57;2.97;;;;;;;;;;6218963;23;20012;-93
2023/03/29 00:51:19;;;;;;;8.57;3.00;;;;;;;;;;6218958;23;20008;-92
2023/03/29 00:53:48;;;;;;;8.73;3.05;;;;;;;;;;6218217;23;20108;-92
2023/03/29 00:56:17;;;;;;;6.47;3.15;;;;;;;;;;6218265;23;20027;-93
2023/03/29 00:58:47;;;;;;;6.65;3.08;;;;;;;;;;6216767;23;20035;-92
2023/03/29 01:01:18;;;;;;;5.40;2.63;;;;;;;;;;6218313;23;20081;-93
2023/03/29 01:03:54;;;;;;;7.90;3.10;;;;;;;;;;6218136;23;20409;-93
2023/03/29 01:06:23;;;;;;;5.47;2.88;;;;;;;;;;6218174;23;20007;-93
2023/03/29 01:09:00;;;;;;;7.20;3.22;;;;;;;;;;6217590;23;20054;-93
2023/03/29 01:11:39;;;;;;;6.38;3.13;;;;;;;;;;6217948;23;20482;-92
2023/03/29 01:14:07;;;;;;;6.75;2.90;;;;;;;;;;6222689;23;20397;-91
2023/03/29 01:16:38;;;;;;;6.68;2.65;;;;;;;;;;6219010;23;20107;-94
2023/03/29 01:19:09;;;;;;;6.43;2.83;;;;;;;;;;6217756;23;20001;-93
2023/03/29 01:21:56;;;;;;;7.43;3.33;;;;;;;;;;6218044;23;20004;-93
2023/03/29 01:24:25;;;;;;;6.13;3.08;;;;;;;;;;6217446;23;20367;-93
2023/03/29 01:26:51;;;;;;;6.53;2.85;;;;;;;;;;6218130;23;20000;-93
2023/03/29 01:29:24;;;;;;;6.28;2.97;;;;;;;;;;6218869;23;20043;-92
2023/03/29 01:31:53;;;;;;;;;;;;;;;;;;6219073;23;20064;-94
2023/03/29 01:34:24;;;;;;;7.10;3.28;;;;;;;;;;6218092;23;19904;-93
2023/03/29 01:37:04;;;;;;;7.72;3.05;;;;;;;;;;6218170;23;20019;-93
2023/03/29 01:39:33;;;;;;;5.70;2.65;;;;;;;;;;6219013;23;20032;-92
2023/03/29 01:41:59;;;;;;;7.22;3.17;;;;;;;;;;6216365;23;20001;-91
2023/03/29 01:44:47;;;;;;;7.07;2.83;;;;;;;;;;6244586;23;20007;-93
2023/03/29 01:47:27;;;;;;;5.45;2.70;;;;;;;;;;6217639;23;20012;-94
2023/03/29 01:50:15;;;;;;;5.82;2.58;;;;;;;;;;6218305;23;20397;-92
2023/03/29 01:53:00;;;;;;;9.35;3.20;;;;;;;;;;6219377;23;20318;-93
2023/03/29 01:55:41;;;;;;;5.85;3.05;;;;;;;;;;6220681;23;20020;-93
2023/03/29 01:58:09;;;;;;;5.13;2.58;;;;;;;;;;6220109;23;20004;-93
2023/03/29 02:00:36;;;;;;;9.60;3.08;;;;;;;;;;6220859;23;20004;-94
2023/03/29 02:03:09;;;;;;;5.20;2.55;;;;;;;;;;6222700;23;20023;-92
2023/03/29 02:05:36;;;;;;;6.15;2.97;;;;;;;;;;6222396;23;20087;-92
2023/03/29 02:08:04;;;;;;;6.25;2.90;;;;;;;;;;6223217;23;20007;-93
2023/03/29 02:10:30;;;;;;;5.40;2.50;;;;;;;;;;6222746;23;20334;-94
2023/03/29 02:13:00;;;;;;;6.53;3.55;;;;;;;;;;6223800;23;20004;-93
2023/03/29 02:15:27;;;;;;;5.35;3.08;;;;;;;;;;6222619;23;20082;-93
2023/03/29 02:17:56;;;;;;;5.78;2.97;;;;;;;;;;6223065;23;20004;-92
2023/03/29 02:20:33;;;;;;;5.80;3.47;;;;;;;;;;6222730;23;20012;-94
2023/03/29 02:23:03;;;;;;;5.45;2.70;;;;;;;;;;6223194;23;19984;-93
2023/03/29 02:25:32;;;;;;;7.00;3.40;;;;;;;;;;6220330;23;20008;-93
2023/03/29 02:28:05;;;;;;;7.22;2.80;;;;;;;;;;6223250;23;20349;-94
2023/03/29 02:30:35;;;;;;;6.32;2.67;;;;;;;;;;6222983;23;20031;-94
2023/03/29 02:33:09;;;;;;;6.63;3.05;;;;;;;;;;6222500;23;20026;-94
2023/03/29 02:35:42;;;;;;;6.18;3.03;;;;;;;;;;6222537;23;20023;-95
2023/03/29 02:38:16;;;;;;;6.03;2.92;;;;;;;;;;6223643;23;20011;-94
2023/03/29 02:40:43;;;;;;;6.88;2.92;;;;;;;;;;6223940;23;20418;-94
2023/03/29 02:45:55;;;;;;;5.47;2.65;;;;;;;;;;6249858;23;20018;-93
2023/03/29 02:48:26;;;;;;;7.43;3.63;;;;;;;;;;6223274;23;20000;-93
2023/03/29 02:50:55;;;;;;;7.78;3.33;;;;;;;;;;6223097;23;20032;-94
2023/03/29 02:53:28;;;;;;;5.82;3.30;;;;;;;;;;6223266;23;20022;-95
2023/03/29 02:55:54;;;;;;;;;;;;;;;;;;6223834;23;20279;-95
2023/03/29 02:58:28;;;;;;;5.95;2.60;;;;;;;;;;6222968;23;19899;-94
2023/03/29 03:01:02;;;;;;;5.97;2.75;;;;;;;;;;6223223;23;20004;-93
2023/03/29 03:03:28;;;;;;;6.65;3.00;;;;;;;;;;6220979;23;20000;-93
2023/03/29 03:05:54;;;;;;;5.97;3.30;;;;;;;;;;6221288;23;20050;-94
2023/03/29 03:08:21;;;;;;;6.75;2.95;;;;;;;;;;6220902;23;20031;-96
2023/03/29 03:10:47;;;;;;;6.55;3.00;;;;;;;;;;6221388;23;20011;-93
2023/03/29 03:13:13;;;;;;;6.70;3.53;;;;;;;;;;6225694;23;20019;-94
2023/03/29 03:15:49;;;;;;;5.85;2.97;;;;;;;;;;6224015;23;20019;-95
2023/03/29 03:18:18;;;;;;;6.43;3.30;;;;;;;;;;6221511;23;20012;-96
2023/03/29 03:20:53;;;;;;;8.30;3.00;;;;;;;;;;6218999;23;19996;-95
2023/03/29 03:23:20;;;;;;;7.15;3.10;;;;;;;;;;6220879;23;20058;-95
2023/03/29 07:31:58;;;;;;;10.77;5.30;;;;;;;;;;6274329;22;20024;-93
2023/03/29 07:34:33;;;;;;;8.13;5.05;;;;;;;;;;6250307;22;20011;-92
2023/03/29 07:36:59;;;;;;;9.90;4.57;;;;;;;;;;6248261;22;20495;-93
2023/03/29 07:39:25;;;;;;;9.52;5.57;;;;;;;;;;6249162;22;20000;-92
2023/03/29 07:41:51;;;;;;;11.82;5.50;;;;;;;;;;6249329;22;20014;-93
2023/03/29 07:44:22;;;;;;;9.00;5.43;;;;;;;;;;6249841;22;20000;-93
2023/03/29 07:46:48;;;;;;;9.50;6.38;;;;;;;;;;6249234;22;20645;-92
2023/03/29 07:49:14;;;;;;;11.38;7.05;;;;;;;;;;6257751;22;20008;-93
2023/03/29 07:51:41;;;;;;;11.60;7.15;;;;;;;;;;6258724;22;19999;-93
2023/03/29 19:40:51;;;;;;;6.30;3.38;;;;;;;;;;6239247;22;20024;-91
2023/03/29 19:43:26;;;;;;;6.97;3.72;;;;;;;;;;6215554;23;20035;-92
2023/03/29 19:46:27;;;;;;;6.85;3.25;;;;;;;;;;6242238;23;20083;-92
2023/03/29 19:49:00;;;;;;;7.60;3.97;;;;;;;;;;6150192;23;20006;-94
2023/03/29 19:51:37;;;;;;;6.88;3.50;;;;;;;;;;6124114;23;20001;-94
2023/03/29 19:54:48;;;;;;;;;;;;;;;;;;;;;
2023/03/29 20:40:04;;;;;;;8.93;4.85;;;;;;;;;;6246112;22;20020;-96
2023/03/29 20:42:33;;;;;;;8.75;5.07;;;;;;;;;;6218515;23;20004;-95
2023/03/29 20:45:17;;;;;;;8.35;4.32;;;;;;;;;;6221480;23;20030;-95
2023/03/29 20:47:54;;;;;;;8.25;4.35;;;;;;;;;;6219130;23;20051;-96
2023/03/29 20:50:24;;;;;;;7.70;4.40;;;;;;;;;;6219618;23;20007;-94
2023/03/29 20:52:54;;;;;;;8.43;5.15;;;;;;;;;;6217350;23;20008;-96
2023/03/29 20:55:21;;;;;;;10.13;5.43;;;;;;;;;;6220622;23;19992;-95
2023/03/29 20:57:48;;;;;;;9.82;4.65;;;;;;;;;;6223737;23;20019;-96
2023/03/29 21:00:21;;;;;;;8.52;5.10;;;;;;;;;;6223875;23;20057;-92
2023/03/29 21:55:52;;;;;;;9.10;5.45;;;;;;;;;;6276100;22;20043;-96
2023/03/29 21:58:21;;;;;;;7.22;4.88;;;;;;;;;;6255002;22;20008;-95
2023/03/29 22:00:47;;;;;;;8.40;5.55;;;;;;;;;;6254546;22;20003;-94
2023/03/29 22:03:21;;;;;;;11.95;5.43;;;;;;;;;;6264779;22;20004;-94
2023/03/29 22:06:01;;;;;;;8.43;5.20;;;;;;;;;;6274932;22;19987;-94
2023/03/29 22:08:31;;;;;;;9.40;5.28;;;;;;;;;;6300942;22;20018;-94
2023/03/29 22:10:57;;;;;;;8.27;5.43;;;;;;;;;;6268156;22;20026;-93
2023/03/29 22:16:51;;;;;;;9.55;5.15;;;;;;;;;;6279606;22;20026;-94
2023/03/29 22:19:20;;;;;;;8.68;4.80;;;;;;;;;;6246647;23;20035;-93
2023/03/29 22:21:47;;;;;;;9.95;5.25;;;;;;;;;;6221759;23;20015;-94
2023/03/29 22:24:18;;;;;;;7.72;4.80;;;;;;;;;;6224324;23;20007;-94
2023/03/29 22:26:44;;;;;;;7.90;4.75;;;;;;;;;;6220035;23;20115;-93
2023/03/29 22:29:11;;;;;;;8.10;4.82;;;;;;;;;;6219487;23;20012;-94
2023/03/29 22:31:38;;;;;;;10.80;5.15;;;;;;;;;;6219196;23;20008;-93
2023/03/29 22:34:07;;;;;;;8.70;4.88;;;;;;;;;;6218959;23;20030;-95
2023/03/29 22:39:13;;;;;;;8.60;5.00;;;;;;;;;;6240162;22;20027;-94
2023/03/29 22:41:39;;;;;;;7.53;4.72;;;;;;;;;;6218634;23;20004;-94
2023/03/29 22:44:05;;;;;;;7.93;4.57;;;;;;;;;;6219454;23;20004;-95
2023/03/29 22:54:19;;;;;;;8.52;4.63;;;;;;;;;;6275907;22;20024;-93
2023/03/29 22:56:45;;;;;;;7.05;4.53;;;;;;;;;;6249226;22;19995;-93
2023/03/29 22:59:14;;;;;;;9.82;5.38;;;;;;;;;;6249063;22;20035;-96
2023/03/29 23:01:40;;;;;;;9.57;4.97;;;;;;;;;;6249747;22;20008;-95
2023/03/29 23:04:07;;;;;;;8.85;5.80;;;;;;;;;;6249023;22;20095;-95
2023/03/29 23:06:33;;;;;;;8.65;4.78;;;;;;;;;;6248585;22;20004;-94
2023/03/29 23:08:59;;;;;;;8.90;5.20;;;;;;;;;;6249064;22;20000;-94
2023/03/29 23:11:25;;;;;;;8.32;5.00;;;;;;;;;;6274894;22;20000;-92
2023/03/29 23:13:51;;;;;;;8.20;4.82;;;;;;;;;;6248575;22;20318;-94
2023/03/29 23:16:19;;;;;;;7.82;4.82;;;;;;;;;;6248868;22;20012;-93
2023/03/29 23:18:46;;;;;;;10.25;5.70;;;;;;;;;;6242993;23;20001;-93
2023/03/29 23:21:18;;;;;;;8.10;4.70;;;;;;;;;;6243637;23;20074;-93
2023/03/29 23:23:44;;;;;;;9.02;5.05;;;;;;;;;;6217803;23;20083;-92
2023/03/29 23:26:13;;;;;;;11.55;4.90;;;;;;;;;;6217961;23;20008;-95
2023/03/29 23:28:39;;;;;;;8.60;5.43;;;;;;;;;;6217887;23;20240;-94
2023/03/29 23:31:13;;;;;;;8.65;5.30;;;;;;;;;;6217295;23;20004;-94
2023/03/29 23:33:40;;;;;;;8.90;4.85;;;;;;;;;;6217063;23;20001;-93
2023/03/29 23:36:09;;;;;;;8.05;5.10;;;;;;;;;;6217427;23;20051;-94
2023/03/29 23:38:36;;;;;;;8.70;5.05;;;;;;;;;;6247696;23;20004;-92
2023/03/29 23:41:07;;;;;;;10.73;5.05;;;;;;;;;;6227870;23;20024;-93
2023/03/29 23:43:36;;;;;;;8.60;5.07;;;;;;;;;;6219634;23;20007;-94
2023/03/29 23:48:38;;;;;;;11.43;5.43;;;;;;;;;;6274234;22;20023;-93
2023/03/29 23:51:07;;;;;;;8.20;5.00;;;;;;;;;;6248081;22;20003;-94
2023/03/29 23:53:33;;;;;;;9.38;5.53;;;;;;;;;;6248849;22;19995;-94
2023/03/29 23:56:00;;;;;;;9.80;5.35;;;;;;;;;;6248675;22;20011;-94
2023/03/29 23:58:30;;;;;;;9.43;5.63;;;;;;;;;;6247901;22;20361;-94
